BAW493 LXGB-EGLL
Flight info
| Callsign | BAW493 |
|---|---|
| Flight time | N/A |
| Altitude | 36000 |
| Route | PIMOS N869 BLN N865 VTB N867 NENEM DCT PEXOD DCT YURZI UL14 TEPRA UN867 MOKOR/N0434F340 UP87 ROXOG |
| Aircraft | A320/M-SDE3FGHIRWY/LB1 |
Departure
| Time | N/A |
|---|---|
| Airport | Gibraltar Airport (LXGB) |
Arrival
| Time | 2026-05-04 19:37 |
|---|---|
| Airport | London Heathrow Airport (EGLL) |
| Time | Latitude | Longitude | Altitude | Speed | Heading |
|---|---|---|---|---|---|
| 2026-05-04 19:05 | 48.56262 | -1.74766 | 35982 ft | 469 kts | 360° |
| 2026-05-04 19:05 | 48.62968 | -1.74842 | 35983 ft | 469 kts | 360° |
| 2026-05-04 19:06 | 48.76028 | -1.75014 | 35984 ft | 469 kts | 360° |
| 2026-05-04 19:06 | 48.89084 | -1.75156 | 35988 ft | 469 kts | 360° |
| 2026-05-04 19:07 | 49.02178 | -1.74843 | 35990 ft | 471 kts | 2° |
| 2026-05-04 19:07 | 49.15278 | -1.74240 | 35987 ft | 471 kts | 1° |
| 2026-05-04 19:08 | 49.28327 | -1.73778 | 35992 ft | 472 kts | 1° |
| 2026-05-04 19:08 | 49.41423 | -1.73239 | 35994 ft | 470 kts | 1° |
| 2026-05-04 19:09 | 49.54507 | -1.72744 | 36001 ft | 469 kts | 1° |
| 2026-05-04 19:09 | 49.67536 | -1.72014 | 36001 ft | 467 kts | 4° |
| 2026-05-04 19:10 | 49.80465 | -1.70781 | 36003 ft | 465 kts | 3° |
| 2026-05-04 19:10 | 49.88776 | -1.70082 | 36002 ft | 465 kts | 3° |
| 2026-05-04 19:11 | 49.95209 | -1.69554 | 36002 ft | 465 kts | 3° |
| 2026-05-04 19:11 | 50.01609 | -1.68362 | 36002 ft | 462 kts | 16° |
| 2026-05-04 19:12 | 50.04677 | -1.66896 | 35823 ft | 461 kts | 18° |
| 2026-05-04 19:12 | 50.10824 | -1.63886 | 34483 ft | 465 kts | 18° |
| 2026-05-04 19:12 | 50.13887 | -1.62404 | 33805 ft | 467 kts | 18° |
| 2026-05-04 19:13 | 50.17011 | -1.60897 | 33227 ft | 464 kts | 18° |
| 2026-05-04 19:13 | 50.20055 | -1.59429 | 32706 ft | 460 kts | 18° |
| 2026-05-04 19:13 | 50.23105 | -1.57947 | 32206 ft | 456 kts | 19° |
| 2026-05-04 19:13 | 50.26108 | -1.56478 | 31561 ft | 450 kts | 19° |
| 2026-05-04 19:14 | 50.29086 | -1.55021 | 30652 ft | 445 kts | 19° |
| 2026-05-04 19:14 | 50.32016 | -1.53590 | 29721 ft | 441 kts | 19° |
| 2026-05-04 19:14 | 50.34945 | -1.52158 | 28755 ft | 435 kts | 19° |
| 2026-05-04 19:14 | 50.37795 | -1.50765 | 27874 ft | 429 kts | 19° |
| 2026-05-04 19:15 | 50.40619 | -1.49381 | 27032 ft | 422 kts | 19° |
| 2026-05-04 19:15 | 50.43395 | -1.48020 | 26241 ft | 414 kts | 19° |
| 2026-05-04 19:15 | 50.46121 | -1.46676 | 25489 ft | 407 kts | 19° |
| 2026-05-04 19:15 | 50.48802 | -1.45349 | 24750 ft | 401 kts | 19° |
| 2026-05-04 19:16 | 50.51448 | -1.44042 | 24026 ft | 395 kts | 19° |
| 2026-05-04 19:16 | 50.54011 | -1.42610 | 23262 ft | 388 kts | 27° |
| 2026-05-04 19:16 | 50.55608 | -1.41331 | 22701 ft | 390 kts | 31° |
| 2026-05-04 19:16 | 50.57969 | -1.39283 | 22298 ft | 385 kts | 30° |
| 2026-05-04 19:17 | 50.60306 | -1.37280 | 21851 ft | 380 kts | 30° |
| 2026-05-04 19:17 | 50.62622 | -1.35304 | 21394 ft | 377 kts | 30° |
| 2026-05-04 19:17 | 50.64917 | -1.33345 | 20940 ft | 373 kts | 30° |
| 2026-05-04 19:17 | 50.67188 | -1.31394 | 20475 ft | 370 kts | 30° |
| 2026-05-04 19:18 | 50.69440 | -1.29452 | 20012 ft | 367 kts | 30° |
| 2026-05-04 19:18 | 50.71672 | -1.27521 | 19547 ft | 365 kts | 30° |
| 2026-05-04 19:18 | 50.73892 | -1.25596 | 19081 ft | 362 kts | 30° |
| 2026-05-04 19:18 | 50.76093 | -1.23685 | 18612 ft | 360 kts | 30° |
| 2026-05-04 19:19 | 50.78243 | -1.21681 | 18131 ft | 358 kts | 33° |
| 2026-05-04 19:19 | 50.80331 | -1.19572 | 17642 ft | 354 kts | 34° |
| 2026-05-04 19:19 | 50.82371 | -1.17426 | 17176 ft | 350 kts | 35° |
| 2026-05-04 19:19 | 50.84389 | -1.15282 | 16720 ft | 347 kts | 34° |
| 2026-05-04 19:20 | 50.86383 | -1.13174 | 16263 ft | 344 kts | 34° |
| 2026-05-04 19:20 | 50.88373 | -1.11085 | 15820 ft | 341 kts | 34° |
| 2026-05-04 19:20 | 50.90345 | -1.09031 | 15361 ft | 339 kts | 33° |
| 2026-05-04 19:20 | 50.92313 | -1.06992 | 14918 ft | 337 kts | 33° |
| 2026-05-04 19:21 | 50.94271 | -1.04965 | 14479 ft | 335 kts | 33° |
| 2026-05-04 19:21 | 50.96220 | -1.02946 | 14023 ft | 334 kts | 33° |
| 2026-05-04 19:21 | 50.98159 | -1.00932 | 13551 ft | 332 kts | 33° |
| 2026-05-04 19:21 | 51.00062 | -0.98886 | 13174 ft | 328 kts | 38° |
| 2026-05-04 19:22 | 51.01690 | -0.96439 | 12781 ft | 324 kts | 49° |
| 2026-05-04 19:22 | 51.03185 | -0.93774 | 12352 ft | 322 kts | 48° |
| 2026-05-04 19:22 | 51.04665 | -0.91138 | 11967 ft | 319 kts | 49° |
| 2026-05-04 19:22 | 51.06141 | -0.88505 | 11552 ft | 318 kts | 49° |
| 2026-05-04 19:23 | 51.07607 | -0.85886 | 11143 ft | 316 kts | 49° |
| 2026-05-04 19:23 | 51.09072 | -0.83270 | 10735 ft | 316 kts | 49° |
| 2026-05-04 19:23 | 51.10530 | -0.80666 | 10331 ft | 315 kts | 49° |
| 2026-05-04 19:23 | 51.11989 | -0.78062 | 9974 ft | 313 kts | 49° |
| 2026-05-04 19:24 | 51.13388 | -0.75559 | 9727 ft | 295 kts | 49° |
| 2026-05-04 19:24 | 51.14735 | -0.73140 | 9195 ft | 288 kts | 49° |
| 2026-05-04 19:24 | 51.16069 | -0.70743 | 8848 ft | 287 kts | 49° |
| 2026-05-04 19:24 | 51.17372 | -0.68409 | 8539 ft | 285 kts | 49° |
| 2026-05-04 19:25 | 51.18684 | -0.66060 | 8253 ft | 283 kts | 49° |
| 2026-05-04 19:25 | 51.19986 | -0.63723 | 8060 ft | 281 kts | 49° |
| 2026-05-04 19:25 | 51.21284 | -0.61391 | 8021 ft | 281 kts | 49° |
| 2026-05-04 19:25 | 51.22580 | -0.59055 | 8025 ft | 281 kts | 49° |
| 2026-05-04 19:26 | 51.23846 | -0.56770 | 8023 ft | 268 kts | 49° |
| 2026-05-04 19:26 | 51.25057 | -0.54582 | 8029 ft | 260 kts | 49° |
| 2026-05-04 19:26 | 51.26268 | -0.52442 | 8025 ft | 260 kts | 43° |
| 2026-05-04 19:26 | 51.27816 | -0.51018 | 7946 ft | 258 kts | 15° |
| 2026-05-04 19:27 | 51.29570 | -0.50945 | 7675 ft | 257 kts | 345° |
| 2026-05-04 19:27 | 51.31126 | -0.52267 | 7394 ft | 255 kts | 315° |
| 2026-05-04 19:27 | 51.32071 | -0.54621 | 7120 ft | 254 kts | 290° |
| 2026-05-04 19:27 | 51.32627 | -0.57307 | 7014 ft | 255 kts | 287° |
| 2026-05-04 19:28 | 51.33123 | -0.59991 | 7024 ft | 248 kts | 286° |
| 2026-05-04 19:28 | 51.33603 | -0.62619 | 7021 ft | 244 kts | 286° |
| 2026-05-04 19:28 | 51.34083 | -0.65206 | 6809 ft | 240 kts | 286° |
| 2026-05-04 19:28 | 51.34558 | -0.67754 | 6523 ft | 238 kts | 286° |
| 2026-05-04 19:29 | 51.35021 | -0.70278 | 6029 ft | 236 kts | 286° |
| 2026-05-04 19:29 | 51.35472 | -0.72774 | 5508 ft | 236 kts | 286° |
| 2026-05-04 19:29 | 51.35918 | -0.75298 | 5112 ft | 235 kts | 286° |
| 2026-05-04 19:29 | 51.36348 | -0.77764 | 4962 ft | 226 kts | 286° |
| 2026-05-04 19:30 | 51.36764 | -0.80175 | 4694 ft | 224 kts | 286° |
| 2026-05-04 19:30 | 51.37168 | -0.82589 | 4381 ft | 224 kts | 286° |
| 2026-05-04 19:30 | 51.37572 | -0.84996 | 4129 ft | 224 kts | 290° |
| 2026-05-04 19:30 | 51.38407 | -0.87029 | 4008 ft | 219 kts | 324° |
| 2026-05-04 19:31 | 51.39787 | -0.87909 | 3999 ft | 211 kts | 359° |
| 2026-05-04 19:31 | 51.41163 | -0.87355 | 4002 ft | 206 kts | 34° |
| 2026-05-04 19:31 | 51.42213 | -0.85831 | 3818 ft | 203 kts | 46° |
| 2026-05-04 19:31 | 51.43156 | -0.84190 | 3687 ft | 197 kts | 47° |
| 2026-05-04 19:32 | 51.44076 | -0.82618 | 3559 ft | 190 kts | 46° |
| 2026-05-04 19:32 | 51.44985 | -0.81110 | 3433 ft | 186 kts | 46° |
| 2026-05-04 19:32 | 51.45864 | -0.79622 | 3312 ft | 183 kts | 50° |
| 2026-05-04 19:32 | 51.46670 | -0.78088 | 3181 ft | 181 kts | 51° |
| 2026-05-04 19:33 | 51.47368 | -0.76434 | 3073 ft | 180 kts | 67° |
| 2026-05-04 19:33 | 51.47615 | -0.74480 | 3026 ft | 180 kts | 88° |
| 2026-05-04 19:33 | 51.47624 | -0.72470 | 2969 ft | 180 kts | 87° |
| 2026-05-04 19:33 | 51.47637 | -0.70466 | 2798 ft | 178 kts | 86° |
| 2026-05-04 19:34 | 51.47649 | -0.68475 | 2566 ft | 178 kts | 87° |
| 2026-05-04 19:34 | 51.47660 | -0.66500 | 2330 ft | 177 kts | 88° |
| 2026-05-04 19:34 | 51.47671 | -0.64532 | 2094 ft | 176 kts | 87° |
| 2026-05-04 19:34 | 51.47682 | -0.62569 | 1860 ft | 176 kts | 87° |
| 2026-05-04 19:35 | 51.47692 | -0.60607 | 1620 ft | 176 kts | 87° |
| 2026-05-04 19:35 | 51.47701 | -0.58717 | 1387 ft | 161 kts | 86° |
| 2026-05-04 19:35 | 51.47708 | -0.57052 | 1194 ft | 142 kts | 86° |
| 2026-05-04 19:35 | 51.47715 | -0.55525 | 987 ft | 134 kts | 86° |
| 2026-05-04 19:36 | 51.47723 | -0.54030 | 806 ft | 134 kts | 86° |
| 2026-05-04 19:36 | 51.47730 | -0.52556 | 620 ft | 130 kts | 87° |
| 2026-05-04 19:36 | 51.47736 | -0.51091 | 435 ft | 132 kts | 88° |
| 2026-05-04 19:36 | 51.47745 | -0.49612 | 289 ft | 134 kts | 87° |
| 2026-05-04 19:37 | 51.47749 | -0.48120 | 107 ft | 133 kts | 87° |
| 2026-05-04 19:37 | 51.47756 | -0.46825 | 95 ft | 93 kts | 90° |
| 2026-05-04 19:37 | 51.47760 | -0.46053 | 86 ft | 55 kts | 90° |
| 2026-05-04 19:37 | 51.47758 | -0.45601 | 87 ft | 20 kts | 90° |
| 2026-05-04 19:38 | 51.47680 | -0.45471 | 84 ft | 13 kts | 183° |
| 2026-05-04 19:38 | 51.47600 | -0.45526 | 88 ft | 14 kts | 244° |
| 2026-05-04 19:38 | 51.47596 | -0.45706 | 85 ft | 19 kts | 270° |
| 2026-05-04 19:38 | 51.47596 | -0.45928 | 85 ft | 21 kts | 270° |
| 2026-05-04 19:39 | 51.47596 | -0.46181 | 87 ft | 23 kts | 270° |
| 2026-05-04 19:39 | 51.47595 | -0.46449 | 93 ft | 25 kts | 269° |
| 2026-05-04 19:39 | 51.47593 | -0.46733 | 90 ft | 27 kts | 268° |
| 2026-05-04 19:39 | 51.47579 | -0.47050 | 89 ft | 30 kts | 268° |
| 2026-05-04 19:40 | 51.47583 | -0.47404 | 88 ft | 33 kts | 270° |
| 2026-05-04 19:40 | 51.47584 | -0.47775 | 87 ft | 32 kts | 269° |
| 2026-05-04 19:40 | 51.47580 | -0.48114 | 90 ft | 30 kts | 270° |
| 2026-05-04 19:40 | 51.47578 | -0.48403 | 90 ft | 21 kts | 267° |
| 2026-05-04 19:41 | 51.47498 | -0.48528 | 87 ft | 14 kts | 262° |
| 2026-05-04 19:41 | 51.47488 | -0.48699 | 85 ft | 17 kts | 267° |
| 2026-05-04 19:41 | 51.47487 | -0.48862 | 87 ft | 9 kts | 270° |
| 2026-05-04 19:41 | 51.47438 | -0.48893 | 86 ft | 8 kts | 176° |
| 2026-05-04 19:42 | 51.47408 | -0.48892 | 85 ft | 1 kts | 179° |
| 2026-05-04 19:42 | 51.47405 | -0.48892 | 85 ft | 0 kts | 179° |